sensor_id;sensor_type;location;lat;lon;timestamp;P1;durP1;ratioP1;P2;durP2;ratioP2
36597;SDS011;22607;49.550;11.940;2023-06-19T00:01:38;9.98;;;6.03;;
36597;SDS011;22607;49.550;11.940;2023-06-19T00:04:05;10.73;;;5.80;;
36597;SDS011;22607;49.550;11.940;2023-06-19T00:06:31;9.88;;;5.97;;
36597;SDS011;22607;49.550;11.940;2023-06-19T00:08:58;9.68;;;5.85;;
36597;SDS011;22607;49.550;11.940;2023-06-19T00:11:25;10.80;;;6.13;;
36597;SDS011;22607;49.550;11.940;2023-06-19T00:13:51;10.27;;;6.43;;
36597;SDS011;22607;49.550;11.940;2023-06-19T00:16:18;11.13;;;6.15;;
36597;SDS011;22607;49.550;11.940;2023-06-19T00:18:46;10.60;;;6.47;;
36597;SDS011;22607;49.550;11.940;2023-06-19T00:21:12;11.20;;;6.72;;
36597;SDS011;22607;49.550;11.940;2023-06-19T00:23:39;10.10;;;5.97;;
36597;SDS011;22607;49.550;11.940;2023-06-19T00:26:05;11.50;;;6.60;;
36597;SDS011;22607;49.550;11.940;2023-06-19T00:28:34;11.27;;;6.32;;
36597;SDS011;22607;49.550;11.940;2023-06-19T00:31:01;10.45;;;5.93;;
36597;SDS011;22607;49.550;11.940;2023-06-19T00:33:28;10.82;;;6.10;;
36597;SDS011;22607;49.550;11.940;2023-06-19T00:35:55;10.23;;;6.15;;
36597;SDS011;22607;49.550;11.940;2023-06-19T00:38:22;9.98;;;5.82;;
36597;SDS011;22607;49.550;11.940;2023-06-19T00:40:51;11.27;;;6.35;;
36597;SDS011;22607;49.550;11.940;2023-06-19T00:43:17;10.70;;;6.57;;
36597;SDS011;22607;49.550;11.940;2023-06-19T00:45:44;13.45;;;6.57;;
36597;SDS011;22607;49.550;11.940;2023-06-19T00:48:11;10.52;;;6.13;;
36597;SDS011;22607;49.550;11.940;2023-06-19T00:50:37;10.25;;;6.10;;
36597;SDS011;22607;49.550;11.940;2023-06-19T00:53:04;10.98;;;6.63;;
36597;SDS011;22607;49.550;11.940;2023-06-19T00:55:31;10.20;;;6.32;;
36597;SDS011;22607;49.550;11.940;2023-06-19T00:57:59;10.90;;;6.47;;
36597;SDS011;22607;49.550;11.940;2023-06-19T01:00:27;10.20;;;6.30;;
36597;SDS011;22607;49.550;11.940;2023-06-19T01:02:54;10.88;;;6.30;;
36597;SDS011;22607;49.550;11.940;2023-06-19T01:05:20;9.80;;;5.95;;
36597;SDS011;22607;49.550;11.940;2023-06-19T01:10:38;11.10;;;6.47;;
36597;SDS011;22607;49.550;11.940;2023-06-19T01:15:56;10.43;;;6.40;;
36597;SDS011;22607;49.550;11.940;2023-06-19T01:18:24;11.18;;;6.72;;
36597;SDS011;22607;49.550;11.940;2023-06-19T01:20:53;11.52;;;6.57;;
36597;SDS011;22607;49.550;11.940;2023-06-19T01:23:19;12.10;;;6.45;;
36597;SDS011;22607;49.550;11.940;2023-06-19T01:25:46;10.40;;;6.05;;
36597;SDS011;22607;49.550;11.940;2023-06-19T01:28:12;11.02;;;6.72;;
36597;SDS011;22607;49.550;11.940;2023-06-19T01:30:40;11.10;;;7.10;;
36597;SDS011;22607;49.550;11.940;2023-06-19T01:33:23;11.05;;;6.72;;
36597;SDS011;22607;49.550;11.940;2023-06-19T01:35:52;11.82;;;7.50;;
36597;SDS011;22607;49.550;11.940;2023-06-19T01:38:21;11.02;;;7.18;;
36597;SDS011;22607;49.550;11.940;2023-06-19T01:40:54;10.45;;;6.38;;
36597;SDS011;22607;49.550;11.940;2023-06-19T01:43:23;10.60;;;7.10;;
36597;SDS011;22607;49.550;11.940;2023-06-19T01:45:51;11.07;;;7.05;;
36597;SDS011;22607;49.550;11.940;2023-06-19T01:48:17;11.30;;;7.13;;
36597;SDS011;22607;49.550;11.940;2023-06-19T01:50:48;11.30;;;7.18;;
36597;SDS011;22607;49.550;11.940;2023-06-19T01:53:15;10.73;;;6.65;;
36597;SDS011;22607;49.550;11.940;2023-06-19T01:55:42;12.95;;;7.88;;
36597;SDS011;22607;49.550;11.940;2023-06-19T01:58:09;10.75;;;6.93;;
36597;SDS011;22607;49.550;11.940;2023-06-19T02:00:35;11.68;;;7.47;;
36597;SDS011;22607;49.550;11.940;2023-06-19T02:03:03;10.75;;;6.78;;
36597;SDS011;22607;49.550;11.940;2023-06-19T02:05:31;11.70;;;7.53;;
36597;SDS011;22607;49.550;11.940;2023-06-19T02:07:57;11.23;;;6.70;;
36597;SDS011;22607;49.550;11.940;2023-06-19T02:10:24;10.88;;;7.05;;
36597;SDS011;22607;49.550;11.940;2023-06-19T02:12:51;12.32;;;7.40;;
36597;SDS011;22607;49.550;11.940;2023-06-19T02:15:19;10.82;;;6.88;;
36597;SDS011;22607;49.550;11.940;2023-06-19T02:17:46;12.15;;;7.22;;
36597;SDS011;22607;49.550;11.940;2023-06-19T02:20:12;11.70;;;7.53;;
36597;SDS011;22607;49.550;11.940;2023-06-19T02:22:39;11.02;;;7.05;;
36597;SDS011;22607;49.550;11.940;2023-06-19T02:25:06;11.43;;;6.85;;
36597;SDS011;22607;49.550;11.940;2023-06-19T02:27:33;12.10;;;6.90;;
36597;SDS011;22607;49.550;11.940;2023-06-19T02:29:59;11.38;;;6.63;;
36597;SDS011;22607;49.550;11.940;2023-06-19T02:32:26;10.60;;;6.40;;
36597;SDS011;22607;49.550;11.940;2023-06-19T02:34:53;11.35;;;7.20;;
36597;SDS011;22607;49.550;11.940;2023-06-19T02:37:20;11.93;;;7.38;;
36597;SDS011;22607;49.550;11.940;2023-06-19T02:39:47;11.40;;;7.05;;
36597;SDS011;22607;49.550;11.940;2023-06-19T02:42:13;10.95;;;7.18;;
36597;SDS011;22607;49.550;11.940;2023-06-19T02:44:40;12.05;;;6.95;;
36597;SDS011;22607;49.550;11.940;2023-06-19T02:47:08;11.15;;;7.00;;
36597;SDS011;22607;49.550;11.940;2023-06-19T02:49:35;10.82;;;7.18;;
36597;SDS011;22607;49.550;11.940;2023-06-19T02:52:02;11.02;;;6.75;;
36597;SDS011;22607;49.550;11.940;2023-06-19T02:54:29;10.75;;;6.63;;
36597;SDS011;22607;49.550;11.940;2023-06-19T02:56:55;11.25;;;7.00;;
36597;SDS011;22607;49.550;11.940;2023-06-19T02:59:22;11.98;;;7.43;;
36597;SDS011;22607;49.550;11.940;2023-06-19T03:01:48;11.18;;;7.20;;
36597;SDS011;22607;49.550;11.940;2023-06-19T03:04:15;10.93;;;7.22;;
36597;SDS011;22607;49.550;11.940;2023-06-19T03:06:41;11.50;;;7.07;;
36597;SDS011;22607;49.550;11.940;2023-06-19T03:09:08;12.02;;;7.07;;
36597;SDS011;22607;49.550;11.940;2023-06-19T03:11:41;12.10;;;7.45;;
36597;SDS011;22607;49.550;11.940;2023-06-19T03:14:08;10.98;;;6.32;;
36597;SDS011;22607;49.550;11.940;2023-06-19T03:16:35;11.15;;;6.75;;
36597;SDS011;22607;49.550;11.940;2023-06-19T03:19:02;11.45;;;7.20;;
36597;SDS011;22607;49.550;11.940;2023-06-19T03:21:28;11.98;;;7.30;;
36597;SDS011;22607;49.550;11.940;2023-06-19T03:23:55;11.15;;;6.72;;
36597;SDS011;22607;49.550;11.940;2023-06-19T03:26:22;11.73;;;7.10;;
36597;SDS011;22607;49.550;11.940;2023-06-19T03:28:48;10.73;;;6.72;;
36597;SDS011;22607;49.550;11.940;2023-06-19T03:31:15;10.60;;;6.25;;
36597;SDS011;22607;49.550;11.940;2023-06-19T03:33:42;10.60;;;6.75;;
36597;SDS011;22607;49.550;11.940;2023-06-19T03:36:08;11.77;;;7.07;;
36597;SDS011;22607;49.550;11.940;2023-06-19T03:38:35;11.55;;;7.68;;
36597;SDS011;22607;49.550;11.940;2023-06-19T03:41:02;10.90;;;7.60;;
36597;SDS011;22607;49.550;11.940;2023-06-19T03:43:28;12.45;;;7.50;;
36597;SDS011;22607;49.550;11.940;2023-06-19T03:45:55;12.25;;;8.43;;
36597;SDS011;22607;49.550;11.940;2023-06-19T03:48:21;11.93;;;7.18;;
36597;SDS011;22607;49.550;11.940;2023-06-19T03:50:48;11.50;;;7.63;;
36597;SDS011;22607;49.550;11.940;2023-06-19T03:53:14;12.52;;;7.80;;
36597;SDS011;22607;49.550;11.940;2023-06-19T03:55:41;12.10;;;8.15;;
36597;SDS011;22607;49.550;11.940;2023-06-19T03:58:08;11.52;;;8.18;;
36597;SDS011;22607;49.550;11.940;2023-06-19T04:00:34;11.75;;;7.60;;
36597;SDS011;22607;49.550;11.940;2023-06-19T04:03:02;11.98;;;7.53;;
36597;SDS011;22607;49.550;11.940;2023-06-19T04:05:29;12.60;;;8.02;;
36597;SDS011;22607;49.550;11.940;2023-06-19T04:07:55;11.32;;;7.18;;
36597;SDS011;22607;49.550;11.940;2023-06-19T04:10:22;12.07;;;7.30;;
36597;SDS011;22607;49.550;11.940;2023-06-19T04:12:49;11.10;;;7.35;;
36597;SDS011;22607;49.550;11.940;2023-06-19T04:15:15;11.07;;;6.63;;
36597;SDS011;22607;49.550;11.940;2023-06-19T04:17:42;12.20;;;7.15;;
36597;SDS011;22607;49.550;11.940;2023-06-19T04:20:09;11.50;;;7.38;;
36597;SDS011;22607;49.550;11.940;2023-06-19T04:22:50;11.20;;;7.20;;
36597;SDS011;22607;49.550;11.940;2023-06-19T04:25:16;11.35;;;7.10;;
36597;SDS011;22607;49.550;11.940;2023-06-19T04:27:44;11.00;;;6.68;;
36597;SDS011;22607;49.550;11.940;2023-06-19T04:30:11;11.98;;;7.30;;
36597;SDS011;22607;49.550;11.940;2023-06-19T04:32:38;9.95;;;6.18;;
36597;SDS011;22607;49.550;11.940;2023-06-19T04:35:08;11.02;;;7.07;;
36597;SDS011;22607;49.550;11.940;2023-06-19T04:37:35;11.38;;;6.97;;
36597;SDS011;22607;49.550;11.940;2023-06-19T04:40:02;10.80;;;7.43;;
36597;SDS011;22607;49.550;11.940;2023-06-19T04:42:30;11.23;;;6.90;;
36597;SDS011;22607;49.550;11.940;2023-06-19T04:44:57;12.10;;;6.85;;
36597;SDS011;22607;49.550;11.940;2023-06-19T04:47:26;11.05;;;7.03;;
36597;SDS011;22607;49.550;11.940;2023-06-19T04:50:06;10.15;;;6.80;;
36597;SDS011;22607;49.550;11.940;2023-06-19T04:52:34;12.55;;;7.53;;
36597;SDS011;22607;49.550;11.940;2023-06-19T04:55:00;11.05;;;7.18;;
36597;SDS011;22607;49.550;11.940;2023-06-19T04:57:27;11.77;;;7.90;;
36597;SDS011;22607;49.550;11.940;2023-06-19T04:59:53;10.85;;;6.95;;
36597;SDS011;22607;49.550;11.940;2023-06-19T05:02:20;10.68;;;6.80;;
36597;SDS011;22607;49.550;11.940;2023-06-19T05:04:47;12.02;;;8.20;;
36597;SDS011;22607;49.550;11.940;2023-06-19T05:07:13;11.95;;;7.72;;
36597;SDS011;22607;49.550;11.940;2023-06-19T05:09:41;11.32;;;7.55;;
36597;SDS011;22607;49.550;11.940;2023-06-19T05:12:08;11.65;;;7.45;;
36597;SDS011;22607;49.550;11.940;2023-06-19T05:14:35;12.52;;;7.65;;
36597;SDS011;22607;49.550;11.940;2023-06-19T05:17:02;11.48;;;7.60;;
36597;SDS011;22607;49.550;11.940;2023-06-19T05:19:28;10.98;;;7.07;;
36597;SDS011;22607;49.550;11.940;2023-06-19T05:21:55;11.20;;;7.25;;
36597;SDS011;22607;49.550;11.940;2023-06-19T05:24:22;10.98;;;7.10;;
36597;SDS011;22607;49.550;11.940;2023-06-19T05:26:48;11.23;;;7.15;;
36597;SDS011;22607;49.550;11.940;2023-06-19T05:29:15;11.40;;;7.10;;
36597;SDS011;22607;49.550;11.940;2023-06-19T05:31:41;10.43;;;6.63;;
36597;SDS011;22607;49.550;11.940;2023-06-19T05:34:08;11.60;;;7.43;;
36597;SDS011;22607;49.550;11.940;2023-06-19T05:36:34;11.18;;;7.07;;
36597;SDS011;22607;49.550;11.940;2023-06-19T05:39:01;11.30;;;7.28;;
36597;SDS011;22607;49.550;11.940;2023-06-19T05:41:27;10.90;;;7.03;;
36597;SDS011;22607;49.550;11.940;2023-06-19T05:43:54;12.10;;;8.23;;
36597;SDS011;22607;49.550;11.940;2023-06-19T05:46:20;11.50;;;7.78;;
36597;SDS011;22607;49.550;11.940;2023-06-19T05:48:47;10.90;;;7.15;;
36597;SDS011;22607;49.550;11.940;2023-06-19T05:51:14;10.80;;;7.20;;
36597;SDS011;22607;49.550;11.940;2023-06-19T05:53:40;11.95;;;7.85;;
36597;SDS011;22607;49.550;11.940;2023-06-19T05:56:07;11.48;;;7.50;;
36597;SDS011;22607;49.550;11.940;2023-06-19T05:58:34;11.63;;;7.38;;
36597;SDS011;22607;49.550;11.940;2023-06-19T06:01:01;10.85;;;7.18;;
36597;SDS011;22607;49.550;11.940;2023-06-19T06:03:29;10.90;;;6.60;;
36597;SDS011;22607;49.550;11.940;2023-06-19T06:05:57;10.65;;;6.30;;
36597;SDS011;22607;49.550;11.940;2023-06-19T06:08:29;11.55;;;6.80;;
36597;SDS011;22607;49.550;11.940;2023-06-19T06:10:56;13.00;;;6.10;;
36597;SDS011;22607;49.550;11.940;2023-06-19T06:13:23;9.80;;;5.82;;
36597;SDS011;22607;49.550;11.940;2023-06-19T06:15:50;11.95;;;7.43;;
36597;SDS011;22607;49.550;11.940;2023-06-19T06:18:17;10.38;;;6.13;;
36597;SDS011;22607;49.550;11.940;2023-06-19T06:20:43;10.30;;;5.85;;
36597;SDS011;22607;49.550;11.940;2023-06-19T06:23:10;10.30;;;5.95;;
36597;SDS011;22607;49.550;11.940;2023-06-19T06:25:36;9.55;;;5.63;;
36597;SDS011;22607;49.550;11.940;2023-06-19T06:28:03;10.00;;;5.65;;
36597;SDS011;22607;49.550;11.940;2023-06-19T06:30:30;13.32;;;6.80;;
36597;SDS011;22607;49.550;11.940;2023-06-19T06:32:56;9.90;;;5.55;;
36597;SDS011;22607;49.550;11.940;2023-06-19T06:35:23;9.65;;;5.60;;
36597;SDS011;22607;49.550;11.940;2023-06-19T06:37:49;9.20;;;5.30;;
36597;SDS011;22607;49.550;11.940;2023-06-19T06:40:16;10.52;;;6.22;;
36597;SDS011;22607;49.550;11.940;2023-06-19T06:42:42;9.70;;;5.68;;
36597;SDS011;22607;49.550;11.940;2023-06-19T06:45:09;9.90;;;5.68;;
36597;SDS011;22607;49.550;11.940;2023-06-19T06:47:36;9.40;;;5.45;;
36597;SDS011;22607;49.550;11.940;2023-06-19T06:50:03;12.02;;;6.40;;
36597;SDS011;22607;49.550;11.940;2023-06-19T06:52:29;10.05;;;6.50;;
36597;SDS011;22607;49.550;11.940;2023-06-19T06:54:58;12.18;;;5.80;;
36597;SDS011;22607;49.550;11.940;2023-06-19T06:57:25;10.30;;;5.72;;
36597;SDS011;22607;49.550;11.940;2023-06-19T06:59:51;9.77;;;5.68;;
36597;SDS011;22607;49.550;11.940;2023-06-19T07:02:19;10.07;;;6.00;;
36597;SDS011;22607;49.550;11.940;2023-06-19T07:04:46;9.52;;;5.60;;
36597;SDS011;22607;49.550;11.940;2023-06-19T07:07:12;11.13;;;6.10;;
36597;SDS011;22607;49.550;11.940;2023-06-19T07:09:39;10.15;;;5.70;;
36597;SDS011;22607;49.550;11.940;2023-06-19T07:12:05;8.70;;;5.00;;
36597;SDS011;22607;49.550;11.940;2023-06-19T07:14:33;10.70;;;5.70;;
36597;SDS011;22607;49.550;11.940;2023-06-19T07:16:59;10.43;;;6.47;;
36597;SDS011;22607;49.550;11.940;2023-06-19T07:19:26;11.70;;;6.32;;
36597;SDS011;22607;49.550;11.940;2023-06-19T07:21:53;9.95;;;5.80;;
36597;SDS011;22607;49.550;11.940;2023-06-19T07:24:20;9.88;;;5.25;;
36597;SDS011;22607;49.550;11.940;2023-06-19T07:26:46;10.20;;;5.47;;
36597;SDS011;22607;49.550;11.940;2023-06-19T07:29:13;9.10;;;5.25;;
36597;SDS011;22607;49.550;11.940;2023-06-19T07:31:40;9.75;;;5.75;;
36597;SDS011;22607;49.550;11.940;2023-06-19T07:34:09;10.23;;;5.75;;
36597;SDS011;22607;49.550;11.940;2023-06-19T07:36:35;11.60;;;5.82;;
36597;SDS011;22607;49.550;11.940;2023-06-19T07:39:02;9.88;;;5.63;;
36597;SDS011;22607;49.550;11.940;2023-06-19T07:41:30;10.02;;;5.60;;
36597;SDS011;22607;49.550;11.940;2023-06-19T07:43:56;9.82;;;6.18;;
36597;SDS011;22607;49.550;11.940;2023-06-19T07:46:23;10.82;;;6.38;;
36597;SDS011;22607;49.550;11.940;2023-06-19T07:48:50;10.23;;;5.22;;
36597;SDS011;22607;49.550;11.940;2023-06-19T07:51:16;9.23;;;5.20;;
36597;SDS011;22607;49.550;11.940;2023-06-19T07:53:43;10.07;;;5.60;;
36597;SDS011;22607;49.550;11.940;2023-06-19T07:56:09;9.90;;;6.05;;
36597;SDS011;22607;49.550;11.940;2023-06-19T07:58:36;10.32;;;6.32;;
36597;SDS011;22607;49.550;11.940;2023-06-19T08:01:03;9.57;;;5.43;;
36597;SDS011;22607;49.550;11.940;2023-06-19T08:03:29;10.75;;;5.93;;
36597;SDS011;22607;49.550;11.940;2023-06-19T08:05:58;10.18;;;5.60;;
36597;SDS011;22607;49.550;11.940;2023-06-19T08:08:24;9.18;;;5.35;;
36597;SDS011;22607;49.550;11.940;2023-06-19T08:10:51;9.73;;;5.20;;
36597;SDS011;22607;49.550;11.940;2023-06-19T08:13:18;9.52;;;5.47;;
36597;SDS011;22607;49.550;11.940;2023-06-19T08:15:44;10.27;;;5.78;;
36597;SDS011;22607;49.550;11.940;2023-06-19T08:18:11;9.18;;;5.47;;
36597;SDS011;22607;49.550;11.940;2023-06-19T08:20:38;10.18;;;5.80;;
36597;SDS011;22607;49.550;11.940;2023-06-19T08:23:05;9.90;;;5.32;;
36597;SDS011;22607;49.550;11.940;2023-06-19T08:25:32;9.88;;;6.43;;
36597;SDS011;22607;49.550;11.940;2023-06-19T08:27:58;9.98;;;5.68;;
36597;SDS011;22607;49.550;11.940;2023-06-19T08:30:25;10.02;;;5.78;;
36597;SDS011;22607;49.550;11.940;2023-06-19T08:32:52;10.68;;;5.55;;
36597;SDS011;22607;49.550;11.940;2023-06-19T08:35:19;10.23;;;5.70;;
36597;SDS011;22607;49.550;11.940;2023-06-19T08:37:47;9.68;;;5.93;;
36597;SDS011;22607;49.550;11.940;2023-06-19T08:40:13;9.90;;;6.15;;
36597;SDS011;22607;49.550;11.940;2023-06-19T08:42:40;9.85;;;6.20;;
36597;SDS011;22607;49.550;11.940;2023-06-19T08:45:09;9.93;;;5.93;;
36597;SDS011;22607;49.550;11.940;2023-06-19T08:47:35;10.57;;;5.50;;
36597;SDS011;22607;49.550;11.940;2023-06-19T08:50:02;9.73;;;5.90;;
36597;SDS011;22607;49.550;11.940;2023-06-19T08:52:29;10.35;;;5.75;;
36597;SDS011;22607;49.550;11.940;2023-06-19T08:54:56;11.15;;;5.75;;
36597;SDS011;22607;49.550;11.940;2023-06-19T08:57:32;11.02;;;5.60;;
36597;SDS011;22607;49.550;11.940;2023-06-19T08:59:59;9.43;;;5.45;;
36597;SDS011;22607;49.550;11.940;2023-06-19T09:02:35;9.77;;;5.50;;
36597;SDS011;22607;49.550;11.940;2023-06-19T09:05:16;9.63;;;5.53;;
36597;SDS011;22607;49.550;11.940;2023-06-19T09:07:44;9.85;;;6.15;;
36597;SDS011;22607;49.550;11.940;2023-06-19T09:10:20;10.82;;;6.05;;
36597;SDS011;22607;49.550;11.940;2023-06-19T09:12:57;10.02;;;6.30;;
36597;SDS011;22607;49.550;11.940;2023-06-19T09:15:26;12.30;;;6.10;;
36597;SDS011;22607;49.550;11.940;2023-06-19T09:18:07;11.68;;;5.57;;
36597;SDS011;22607;49.550;11.940;2023-06-19T09:20:40;8.98;;;5.10;;
36597;SDS011;22607;49.550;11.940;2023-06-19T09:23:13;10.98;;;6.25;;
36597;SDS011;22607;49.550;11.940;2023-06-19T09:25:46;11.90;;;5.72;;
36597;SDS011;22607;49.550;11.940;2023-06-19T09:28:24;10.98;;;6.30;;
36597;SDS011;22607;49.550;11.940;2023-06-19T09:30:56;11.23;;;6.78;;
36597;SDS011;22607;49.550;11.940;2023-06-19T09:33:31;10.20;;;6.07;;
36597;SDS011;22607;49.550;11.940;2023-06-19T09:35:59;11.15;;;6.18;;
36597;SDS011;22607;49.550;11.940;2023-06-19T09:38:33;9.10;;;5.20;;
36597;SDS011;22607;49.550;11.940;2023-06-19T09:41:02;11.50;;;6.93;;
36597;SDS011;22607;49.550;11.940;2023-06-19T09:43:37;12.50;;;6.82;;
36597;SDS011;22607;49.550;11.940;2023-06-19T09:46:14;10.13;;;5.68;;
36597;SDS011;22607;49.550;11.940;2023-06-19T09:48:45;11.43;;;6.68;;
36597;SDS011;22607;49.550;11.940;2023-06-19T09:53:54;10.85;;;5.82;;
36597;SDS011;22607;49.550;11.940;2023-06-19T09:56:24;9.82;;;5.93;;
36597;SDS011;22607;49.550;11.940;2023-06-19T09:58:53;10.00;;;6.22;;
36597;SDS011;22607;49.550;11.940;2023-06-19T10:01:22;10.35;;;6.70;;
36597;SDS011;22607;49.550;11.940;2023-06-19T10:03:50;11.82;;;7.20;;
36597;SDS011;22607;49.550;11.940;2023-06-19T10:06:28;9.98;;;5.82;;
36597;SDS011;22607;49.550;11.940;2023-06-19T10:08:56;9.25;;;5.20;;
36597;SDS011;22607;49.550;11.940;2023-06-19T10:11:49;9.77;;;6.00;;
36597;SDS011;22607;49.550;11.940;2023-06-19T10:14:18;8.80;;;5.10;;
36597;SDS011;22607;49.550;11.940;2023-06-19T10:16:46;8.90;;;5.40;;
36597;SDS011;22607;49.550;11.940;2023-06-19T10:19:17;10.50;;;5.38;;
36597;SDS011;22607;49.550;11.940;2023-06-19T10:21:46;10.63;;;6.05;;
36597;SDS011;22607;49.550;11.940;2023-06-19T10:24:17;10.52;;;5.97;;
36597;SDS011;22607;49.550;11.940;2023-06-19T10:27:01;9.25;;;5.40;;
36597;SDS011;22607;49.550;11.940;2023-06-19T10:29:38;10.98;;;6.70;;
36597;SDS011;22607;49.550;11.940;2023-06-19T10:32:06;12.35;;;6.32;;
36597;SDS011;22607;49.550;11.940;2023-06-19T10:34:33;11.88;;;5.97;;
36597;SDS011;22607;49.550;11.940;2023-06-19T10:37:00;9.02;;;5.53;;
36597;SDS011;22607;49.550;11.940;2023-06-19T10:39:27;9.95;;;5.60;;
36597;SDS011;22607;49.550;11.940;2023-06-19T10:41:54;10.95;;;5.50;;
36597;SDS011;22607;49.550;11.940;2023-06-19T10:44:22;10.23;;;5.35;;
36597;SDS011;22607;49.550;11.940;2023-06-19T10:46:51;10.83;;;5.30;;
36597;SDS011;22607;49.550;11.940;2023-06-19T10:49:18;8.73;;;5.20;;
36597;SDS011;22607;49.550;11.940;2023-06-19T10:51:45;8.88;;;5.10;;
36597;SDS011;22607;49.550;11.940;2023-06-19T10:54:14;8.88;;;5.07;;
36597;SDS011;22607;49.550;11.940;2023-06-19T10:56:41;9.00;;;5.10;;
36597;SDS011;22607;49.550;11.940;2023-06-19T10:59:10;9.57;;;5.57;;
36597;SDS011;22607;49.550;11.940;2023-06-19T11:04:44;9.98;;;5.30;;
36597;SDS011;22607;49.550;11.940;2023-06-19T11:07:10;9.23;;;5.47;;
36597;SDS011;22607;49.550;11.940;2023-06-19T11:09:38;10.68;;;6.13;;
36597;SDS011;22607;49.550;11.940;2023-06-19T11:12:07;11.00;;;5.47;;
36597;SDS011;22607;49.550;11.940;2023-06-19T11:14:34;10.05;;;5.28;;
36597;SDS011;22607;49.550;11.940;2023-06-19T11:19:32;9.65;;;5.70;;
36597;SDS011;22607;49.550;11.940;2023-06-19T11:22:00;9.15;;;5.40;;
36597;SDS011;22607;49.550;11.940;2023-06-19T11:24:29;8.77;;;5.28;;
36597;SDS011;22607;49.550;11.940;2023-06-19T11:26:56;9.55;;;5.30;;
36597;SDS011;22607;49.550;11.940;2023-06-19T11:29:25;8.93;;;5.30;;
36597;SDS011;22607;49.550;11.940;2023-06-19T11:32:04;8.70;;;4.90;;
36597;SDS011;22607;49.550;11.940;2023-06-19T11:34:35;8.82;;;4.82;;
36597;SDS011;22607;49.550;11.940;2023-06-19T11:37:13;9.20;;;4.90;;
36597;SDS011;22607;49.550;11.940;2023-06-19T11:39:41;9.50;;;5.20;;
36597;SDS011;22607;49.550;11.940;2023-06-19T11:42:10;10.45;;;5.45;;
36597;SDS011;22607;49.550;11.940;2023-06-19T11:44:52;9.55;;;5.20;;
36597;SDS011;22607;49.550;11.940;2023-06-19T11:47:30;9.32;;;5.13;;
36597;SDS011;22607;49.550;11.940;2023-06-19T11:49:58;9.23;;;5.10;;
36597;SDS011;22607;49.550;11.940;2023-06-19T11:52:25;8.65;;;4.78;;
36597;SDS011;22607;49.550;11.940;2023-06-19T11:54:52;8.43;;;4.50;;
36597;SDS011;22607;49.550;11.940;2023-06-19T11:57:18;8.18;;;4.70;;
36597;SDS011;22607;49.550;11.940;2023-06-19T11:59:45;9.75;;;5.00;;
36597;SDS011;22607;49.550;11.940;2023-06-19T12:02:13;8.60;;;4.97;;
36597;SDS011;22607;49.550;11.940;2023-06-19T12:04:39;10.25;;;4.82;;
36597;SDS011;22607;49.550;11.940;2023-06-19T12:07:06;10.20;;;5.18;;
36597;SDS011;22607;49.550;11.940;2023-06-19T12:09:33;8.77;;;4.50;;
36597;SDS011;22607;49.550;11.940;2023-06-19T12:12:00;8.57;;;4.90;;
36597;SDS011;22607;49.550;11.940;2023-06-19T12:14:27;9.65;;;4.95;;
36597;SDS011;22607;49.550;11.940;2023-06-19T12:16:54;8.45;;;4.45;;
36597;SDS011;22607;49.550;11.940;2023-06-19T12:19:20;9.00;;;5.15;;
36597;SDS011;22607;49.550;11.940;2023-06-19T12:21:47;8.07;;;4.43;;
36597;SDS011;22607;49.550;11.940;2023-06-19T12:24:14;9.18;;;5.07;;
36597;SDS011;22607;49.550;11.940;2023-06-19T12:26:40;9.25;;;4.85;;
36597;SDS011;22607;49.550;11.940;2023-06-19T12:29:07;8.60;;;5.10;;
36597;SDS011;22607;49.550;11.940;2023-06-19T12:31:34;8.55;;;4.72;;
36597;SDS011;22607;49.550;11.940;2023-06-19T12:34:03;7.85;;;4.38;;
36597;SDS011;22607;49.550;11.940;2023-06-19T12:36:50;8.52;;;4.45;;
36597;SDS011;22607;49.550;11.940;2023-06-19T12:39:17;8.88;;;4.38;;
36597;SDS011;22607;49.550;11.940;2023-06-19T12:41:43;8.15;;;4.43;;
36597;SDS011;22607;49.550;11.940;2023-06-19T12:44:11;8.70;;;4.25;;
36597;SDS011;22607;49.550;11.940;2023-06-19T12:46:38;9.55;;;4.95;;
36597;SDS011;22607;49.550;11.940;2023-06-19T12:49:07;8.70;;;4.80;;
36597;SDS011;22607;49.550;11.940;2023-06-19T12:51:33;8.40;;;4.35;;
36597;SDS011;22607;49.550;11.940;2023-06-19T12:54:00;8.45;;;4.53;;
36597;SDS011;22607;49.550;11.940;2023-06-19T12:56:27;10.93;;;5.75;;
36597;SDS011;22607;49.550;11.940;2023-06-19T12:58:53;8.68;;;4.80;;
36597;SDS011;22607;49.550;11.940;2023-06-19T13:01:21;9.65;;;4.55;;
36597;SDS011;22607;49.550;11.940;2023-06-19T13:03:48;8.35;;;4.47;;
36597;SDS011;22607;49.550;11.940;2023-06-19T13:06:16;8.27;;;4.50;;
36597;SDS011;22607;49.550;11.940;2023-06-19T13:08:42;8.93;;;4.28;;
36597;SDS011;22607;49.550;11.940;2023-06-19T13:11:11;8.95;;;5.18;;
36597;SDS011;22607;49.550;11.940;2023-06-19T13:13:38;9.00;;;4.93;;
36597;SDS011;22607;49.550;11.940;2023-06-19T13:16:04;10.90;;;4.88;;
36597;SDS011;22607;49.550;11.940;2023-06-19T13:18:31;8.30;;;4.32;;
36597;SDS011;22607;49.550;11.940;2023-06-19T13:20:57;7.85;;;3.85;;
36597;SDS011;22607;49.550;11.940;2023-06-19T13:23:24;7.95;;;4.20;;
36597;SDS011;22607;49.550;11.940;2023-06-19T13:25:50;9.13;;;4.43;;
36597;SDS011;22607;49.550;11.940;2023-06-19T13:28:17;8.77;;;4.63;;
36597;SDS011;22607;49.550;11.940;2023-06-19T13:30:44;7.35;;;3.53;;
36597;SDS011;22607;49.550;11.940;2023-06-19T13:33:11;8.13;;;4.25;;
36597;SDS011;22607;49.550;11.940;2023-06-19T13:35:38;8.30;;;4.40;;
36597;SDS011;22607;49.550;11.940;2023-06-19T13:38:06;8.05;;;4.22;;
36597;SDS011;22607;49.550;11.940;2023-06-19T13:40:32;8.02;;;3.88;;
36597;SDS011;22607;49.550;11.940;2023-06-19T13:42:59;8.63;;;4.78;;
36597;SDS011;22607;49.550;11.940;2023-06-19T13:45:26;8.68;;;4.32;;
36597;SDS011;22607;49.550;11.940;2023-06-19T13:47:53;8.93;;;4.00;;
36597;SDS011;22607;49.550;11.940;2023-06-19T13:50:19;7.45;;;3.63;;
36597;SDS011;22607;49.550;11.940;2023-06-19T13:52:47;8.00;;;3.58;;
36597;SDS011;22607;49.550;11.940;2023-06-19T13:55:14;7.65;;;3.13;;
36597;SDS011;22607;49.550;11.940;2023-06-19T13:57:42;6.82;;;3.40;;
36597;SDS011;22607;49.550;11.940;2023-06-19T14:00:10;7.70;;;3.40;;
36597;SDS011;22607;49.550;11.940;2023-06-19T14:02:38;7.82;;;3.78;;
36597;SDS011;22607;49.550;11.940;2023-06-19T14:05:07;7.72;;;3.70;;
36597;SDS011;22607;49.550;11.940;2023-06-19T14:07:35;6.70;;;2.90;;
36597;SDS011;22607;49.550;11.940;2023-06-19T14:10:03;6.97;;;2.92;;
36597;SDS011;22607;49.550;11.940;2023-06-19T14:12:31;7.30;;;3.13;;
36597;SDS011;22607;49.550;11.940;2023-06-19T14:15:00;7.88;;;3.40;;
36597;SDS011;22607;49.550;11.940;2023-06-19T14:17:27;7.20;;;3.30;;
36597;SDS011;22607;49.550;11.940;2023-06-19T14:19:53;7.70;;;3.22;;
36597;SDS011;22607;49.550;11.940;2023-06-19T14:22:23;8.05;;;3.42;;
36597;SDS011;22607;49.550;11.940;2023-06-19T14:24:49;6.65;;;2.90;;
36597;SDS011;22607;49.550;11.940;2023-06-19T14:27:16;7.03;;;3.05;;
36597;SDS011;22607;49.550;11.940;2023-06-19T14:29:42;6.50;;;2.85;;
36597;SDS011;22607;49.550;11.940;2023-06-19T14:32:09;7.60;;;3.30;;
36597;SDS011;22607;49.550;11.940;2023-06-19T14:34:36;6.40;;;2.78;;
36597;SDS011;22607;49.550;11.940;2023-06-19T14:37:03;9.10;;;3.67;;
36597;SDS011;22607;49.550;11.940;2023-06-19T14:39:30;7.20;;;3.00;;
36597;SDS011;22607;49.550;11.940;2023-06-19T14:41:56;6.68;;;2.85;;
36597;SDS011;22607;49.550;11.940;2023-06-19T14:44:23;7.53;;;3.10;;